createdAt,value
2023-03-04T00:00:43.207Z,7.93
2023-03-04T00:01:45.696Z,7.57
2023-03-04T00:02:48.037Z,7.72
2023-03-04T00:03:50.366Z,8.40
2023-03-04T00:04:52.638Z,8.15
2023-03-04T00:05:54.948Z,7.25
2023-03-04T00:06:57.259Z,7.82
2023-03-04T00:07:59.513Z,7.90
2023-03-04T00:09:03.926Z,7.90
2023-03-04T00:10:06.870Z,7.97
2023-03-04T00:11:09.127Z,7.50
2023-03-04T00:12:11.858Z,7.78
2023-03-04T00:13:14.293Z,7.68
2023-03-04T00:14:16.699Z,7.43
2023-03-04T00:15:19.014Z,8.07
2023-03-04T00:16:21.374Z,8.25
2023-03-04T00:17:24.102Z,7.18
2023-03-04T00:18:26.408Z,8.20
2023-03-04T00:19:28.758Z,7.50
2023-03-04T00:20:31.016Z,7.40
2023-03-04T00:21:33.403Z,6.68
2023-03-04T00:22:35.823Z,7.20
2023-03-04T00:23:38.138Z,7.22
2023-03-04T00:24:40.492Z,7.80
2023-03-04T00:25:43.683Z,7.53
2023-03-04T00:26:46.428Z,7.25
2023-03-04T00:27:48.757Z,7.68
2023-03-04T00:28:51.205Z,7.32
2023-03-04T00:29:53.501Z,7.60
2023-03-04T00:30:55.930Z,7.75
2023-03-04T00:31:58.340Z,8.05
2023-03-04T00:33:01.660Z,8.13
2023-03-04T00:34:04.049Z,7.43
2023-03-04T00:35:07.328Z,7.68
2023-03-04T00:36:10.528Z,7.40
2023-03-04T00:37:12.799Z,7.75
2023-03-04T00:38:15.142Z,7.75
2023-03-04T00:39:18.155Z,7.55
2023-03-04T00:40:20.646Z,7.55
2023-03-04T00:41:23.007Z,7.93
2023-03-04T00:42:25.410Z,7.55
2023-03-04T00:43:27.855Z,7.88
2023-03-04T00:44:30.144Z,8.07
2023-03-04T00:45:32.444Z,6.90
2023-03-04T00:46:34.789Z,7.78
2023-03-04T00:47:37.112Z,7.95
2023-03-04T00:48:39.448Z,6.85
2023-03-04T00:49:41.851Z,7.82
2023-03-04T00:50:44.828Z,7.50
2023-03-04T00:51:47.290Z,7.45
2023-03-04T00:52:49.616Z,7.50
2023-03-04T00:53:52.354Z,7.00
2023-03-04T00:54:54.699Z,7.22
2023-03-04T00:55:56.982Z,7.72
2023-03-04T00:56:59.259Z,8.45
2023-03-04T00:58:01.802Z,7.25
2023-03-04T00:59:04.495Z,7.30
2023-03-04T01:00:10.003Z,7.90
2023-03-04T01:01:12.435Z,7.38
2023-03-04T01:02:14.907Z,8.10
2023-03-04T01:03:17.252Z,7.10
2023-03-04T01:04:19.743Z,7.88
2023-03-04T01:05:22.592Z,7.03
2023-03-04T01:06:24.962Z,7.20
2023-03-04T01:07:27.289Z,7.60
2023-03-04T01:08:30.126Z,7.68
2023-03-04T01:09:32.447Z,6.72
2023-03-04T01:10:34.731Z,7.78
2023-03-04T01:11:38.045Z,6.68
2023-03-04T01:12:41.541Z,7.55
2023-03-04T01:13:43.854Z,7.07
2023-03-04T01:14:46.187Z,6.78
2023-03-04T01:15:48.873Z,6.82
2023-03-04T01:16:51.478Z,7.05
2023-03-04T01:17:54.041Z,7.43
2023-03-04T01:18:56.399Z,7.13
2023-03-04T01:19:58.712Z,7.57
2023-03-04T01:21:01.039Z,7.38
2023-03-04T01:22:05.145Z,7.25
2023-03-04T01:23:07.418Z,7.72
2023-03-04T01:24:11.167Z,7.03
2023-03-04T01:25:16.378Z,6.70
2023-03-04T01:26:19.011Z,6.97
2023-03-04T01:27:23.255Z,7.32
2023-03-04T01:28:26.364Z,6.65
2023-03-04T01:29:30.350Z,7.30
2023-03-04T01:30:33.153Z,6.53
2023-03-04T01:31:35.491Z,7.22
2023-03-04T01:32:37.829Z,6.78
2023-03-04T01:33:40.221Z,7.38
2023-03-04T01:34:42.551Z,7.43
2023-03-04T01:35:45.014Z,5.85
2023-03-04T01:36:47.348Z,6.57
2023-03-04T01:37:49.754Z,7.20
2023-03-04T01:38:52.160Z,7.13
2023-03-04T01:39:54.506Z,6.88
2023-03-04T01:40:56.846Z,6.85
2023-03-04T01:41:59.267Z,7.20
2023-03-04T01:43:01.648Z,6.93
2023-03-04T01:44:04.257Z,7.05
2023-03-04T01:45:07.751Z,6.85
2023-03-04T01:46:14.948Z,7.05
2023-03-04T01:47:18.746Z,6.53
2023-03-04T01:48:34.006Z,6.32
2023-03-04T01:49:36.364Z,6.25
2023-03-04T01:50:38.708Z,6.80
2023-03-04T01:51:52.132Z,6.95
2023-03-04T01:52:54.722Z,6.28
2023-03-04T01:53:56.992Z,6.93
2023-03-04T01:55:00.457Z,6.97
2023-03-04T01:56:14.621Z,6.57
2023-03-04T01:57:22.454Z,6.72
2023-03-04T01:58:29.969Z,6.78
2023-03-04T01:59:32.567Z,6.18
2023-03-04T02:00:35.085Z,7.50
2023-03-04T02:01:39.254Z,6.25
2023-03-04T02:02:41.620Z,6.25
2023-03-04T02:03:43.960Z,6.50
2023-03-04T02:04:46.332Z,6.75
2023-03-04T02:05:50.866Z,78.10
2023-03-04T02:06:53.751Z,109.43
2023-03-04T02:07:58.456Z,65.78
2023-03-04T02:09:00.876Z,35.42
2023-03-04T02:10:04.600Z,25.83
2023-03-04T02:11:06.945Z,21.77
2023-03-04T02:12:09.251Z,17.88
2023-03-04T02:13:12.715Z,15.98
2023-03-04T02:14:16.504Z,14.38
2023-03-04T02:15:19.124Z,12.50
2023-03-04T02:16:21.591Z,11.82
2023-03-04T02:17:28.655Z,12.18
2023-03-04T02:18:30.947Z,11.05
2023-03-04T02:19:45.910Z,10.63
2023-03-04T02:20:58.580Z,10.98
2023-03-04T02:22:00.962Z,9.60
2023-03-04T02:23:16.889Z,9.75
2023-03-04T02:24:29.237Z,9.93
2023-03-04T02:26:09.769Z,9.38
2023-03-04T02:27:12.385Z,8.55
2023-03-04T02:28:15.361Z,7.47
2023-03-04T02:29:18.545Z,8.45
2023-03-04T02:30:23.794Z,7.45
2023-03-04T02:31:33.821Z,7.40
2023-03-04T02:32:36.423Z,6.38
2023-03-04T02:33:38.736Z,7.22
2023-03-04T02:34:49.961Z,7.80
2023-03-04T02:35:52.596Z,6.60
2023-03-04T02:36:56.189Z,6.38
2023-03-04T02:37:58.700Z,7.28
2023-03-04T02:39:08.030Z,6.72
2023-03-04T02:40:27.057Z,6.10
2023-03-04T02:41:30.362Z,6.90
2023-03-04T02:42:33.582Z,6.97
2023-03-04T02:43:36.004Z,6.63
2023-03-04T02:44:41.663Z,7.10
2023-03-04T02:45:47.199Z,7.07
2023-03-04T02:46:52.329Z,6.80
2023-03-04T02:47:55.709Z,6.45
2023-03-04T02:48:58.069Z,6.03
2023-03-04T02:50:00.473Z,7.05
2023-03-04T02:51:02.958Z,6.07
2023-03-04T02:52:13.296Z,11.20
2023-03-04T02:53:16.118Z,46.70
2023-03-04T02:54:23.449Z,31.25
2023-03-04T02:55:25.880Z,29.60
2023-03-04T02:56:29.020Z,23.58
2023-03-04T02:57:31.462Z,19.05
2023-03-04T02:58:33.958Z,15.43
2023-03-04T02:59:38.690Z,14.90
2023-03-04T03:00:41.461Z,14.10
2023-03-04T03:01:44.418Z,12.70
2023-03-04T03:02:48.067Z,11.73
2023-03-04T03:03:50.351Z,11.70
2023-03-04T03:04:52.722Z,11.30
2023-03-04T03:05:56.403Z,10.55
2023-03-04T03:06:59.771Z,9.93
2023-03-04T03:08:02.782Z,9.13
2023-03-04T03:09:05.218Z,10.07
2023-03-04T03:10:07.966Z,8.30
2023-03-04T03:11:10.358Z,9.20
2023-03-04T03:12:13.217Z,8.65
2023-03-04T03:13:15.954Z,9.13
2023-03-04T03:14:18.314Z,7.97
2023-03-04T03:15:20.896Z,8.32
2023-03-04T03:16:24.090Z,8.60
2023-03-04T03:17:26.894Z,7.85
2023-03-04T03:18:29.461Z,54.70
2023-03-04T03:19:31.863Z,51.58
2023-03-04T03:20:35.831Z,33.47
2023-03-04T03:21:38.207Z,33.00
2023-03-04T03:22:41.313Z,27.02
2023-03-04T03:23:45.057Z,24.73
2023-03-04T03:24:47.460Z,22.70
2023-03-04T03:25:49.797Z,19.02
2023-03-04T03:26:52.155Z,18.55
2023-03-04T03:27:56.152Z,19.02
2023-03-04T03:28:59.688Z,16.33
2023-03-04T03:30:07.105Z,15.80
2023-03-04T03:31:13.538Z,15.02
2023-03-04T03:32:16.030Z,14.63
2023-03-04T03:33:18.429Z,14.65
2023-03-04T03:34:21.117Z,14.43
2023-03-04T03:35:24.183Z,13.95
2023-03-04T03:36:26.631Z,92.25
2023-03-04T03:37:29.032Z,30.42
2023-03-04T03:38:31.668Z,35.47
2023-03-04T03:39:34.104Z,30.02
2023-03-04T03:40:36.479Z,26.15
2023-03-04T03:41:39.885Z,23.02
2023-03-04T03:42:42.483Z,20.27
2023-03-04T03:43:44.812Z,19.02
2023-03-04T03:44:47.231Z,18.23
2023-03-04T03:45:51.887Z,18.38
2023-03-04T03:46:54.305Z,18.98
2023-03-04T03:47:56.768Z,18.45
2023-03-04T03:48:59.559Z,16.38
2023-03-04T03:50:01.927Z,16.55
2023-03-04T03:51:04.298Z,15.93
2023-03-04T03:52:08.278Z,16.30
2023-03-04T03:53:10.625Z,15.57
2023-03-04T03:54:13.165Z,14.70
2023-03-04T03:55:15.601Z,14.00
2023-03-04T03:56:17.959Z,13.15
2023-03-04T03:57:20.417Z,13.93
2023-03-04T03:58:23.209Z,13.75
2023-03-04T03:59:25.743Z,13.57
2023-03-04T04:00:28.427Z,12.98
2023-03-04T04:01:31.074Z,12.80
2023-03-04T04:02:33.535Z,12.18
2023-03-04T04:03:36.561Z,11.93
2023-03-04T04:04:38.953Z,12.18
2023-03-04T04:05:41.363Z,11.45
2023-03-04T04:06:43.693Z,11.93
2023-03-04T04:07:46.121Z,11.57
2023-03-04T04:08:48.467Z,12.02
2023-03-04T04:09:50.783Z,11.73
2023-03-04T04:10:53.158Z,11.15
2023-03-04T04:11:56.284Z,11.63
2023-03-04T04:12:59.310Z,11.80
2023-03-04T04:14:01.626Z,11.68
2023-03-04T04:15:04.384Z,11.85
2023-03-04T04:16:08.056Z,11.10
2023-03-04T04:17:11.102Z,10.43
2023-03-04T04:18:13.472Z,10.30
2023-03-04T04:19:20.083Z,10.82
2023-03-04T04:20:24.960Z,10.57
2023-03-04T04:21:28.414Z,10.65
2023-03-04T04:22:30.738Z,30.00
2023-03-04T04:23:33.537Z,26.25
2023-03-04T04:24:35.880Z,19.27
2023-03-04T04:25:38.221Z,27.35
2023-03-04T04:26:41.227Z,26.05
2023-03-04T04:27:43.553Z,25.05
2023-03-04T04:28:45.888Z,24.27
2023-03-04T04:29:48.100Z,27.70
2023-03-04T04:30:50.904Z,24.23
2023-03-04T04:31:53.321Z,20.80
2023-03-04T04:32:55.705Z,20.63
2023-03-04T04:33:59.217Z,18.63
2023-03-04T04:35:01.636Z,18.35
2023-03-04T04:36:05.093Z,16.85
2023-03-04T04:37:07.928Z,16.27
2023-03-04T04:38:10.360Z,15.23
2023-03-04T04:39:12.830Z,15.52
2023-03-04T04:40:16.659Z,15.32
2023-03-04T04:41:35.379Z,15.07
2023-03-04T04:42:40.998Z,14.13
2023-03-04T04:43:43.374Z,14.13
2023-03-04T04:44:45.759Z,14.15
2023-03-04T04:45:48.109Z,13.82
2023-03-04T04:46:50.449Z,13.30
2023-03-04T04:47:57.360Z,13.00
2023-03-04T04:48:59.956Z,13.10
2023-03-04T04:50:02.634Z,13.13
2023-03-04T04:51:05.433Z,13.30
2023-03-04T04:52:07.866Z,11.98
2023-03-04T04:53:13.279Z,12.88
2023-03-04T04:54:15.835Z,13.05
2023-03-04T04:55:18.540Z,12.75
2023-03-04T04:56:26.162Z,13.88
2023-03-04T04:57:28.679Z,12.82
2023-03-04T04:58:30.978Z,12.52
2023-03-04T04:59:33.309Z,12.15
2023-03-04T05:00:35.675Z,11.98
2023-03-04T05:01:38.205Z,12.05
2023-03-04T05:02:40.975Z,12.45
2023-03-04T05:03:43.629Z,11.68
2023-03-04T05:04:46.031Z,13.52
2023-03-04T05:05:49.060Z,13.48
2023-03-04T05:06:53.778Z,13.02
2023-03-04T05:07:56.125Z,12.82
2023-03-04T05:08:58.488Z,13.02
2023-03-04T05:10:00.924Z,13.50
2023-03-04T05:11:05.428Z,13.65
2023-03-04T05:12:07.789Z,12.07
2023-03-04T05:13:10.474Z,12.32
2023-03-04T05:14:12.811Z,12.23
2023-03-04T05:15:15.516Z,12.00
2023-03-04T05:16:18.066Z,13.07
2023-03-04T05:17:20.476Z,11.80
2023-03-04T05:18:24.266Z,12.27
2023-03-04T05:19:27.239Z,12.07
2023-03-04T05:20:29.657Z,12.10
2023-03-04T05:21:32.042Z,12.55
2023-03-04T05:22:34.851Z,12.23
2023-03-04T05:23:39.754Z,11.13
2023-03-04T05:24:42.663Z,12.18
2023-03-04T05:25:45.167Z,11.18
2023-03-04T05:26:47.596Z,11.82
2023-03-04T05:27:50.038Z,11.68
2023-03-04T05:28:52.405Z,24.40
2023-03-04T05:29:59.698Z,27.15
2023-03-04T05:31:02.393Z,35.67
2023-03-04T05:32:05.010Z,31.10
2023-03-04T05:33:08.891Z,29.00
2023-03-04T05:34:11.341Z,26.00
2023-03-04T05:35:13.726Z,22.48
2023-03-04T05:36:16.774Z,19.38
2023-03-04T05:37:19.137Z,18.73
2023-03-04T05:38:22.338Z,17.20
2023-03-04T05:39:24.760Z,16.90
2023-03-04T05:40:27.164Z,16.38
2023-03-04T05:41:29.636Z,16.15
2023-03-04T05:42:33.351Z,16.48
2023-03-04T05:43:36.802Z,14.65
2023-03-04T05:44:39.687Z,13.55
2023-03-04T05:45:42.373Z,13.50
2023-03-04T05:46:45.860Z,13.25
2023-03-04T05:47:48.816Z,13.02
2023-03-04T05:48:52.790Z,13.40
2023-03-04T05:49:55.115Z,12.77
2023-03-04T05:51:00.234Z,12.43
2023-03-04T05:52:02.536Z,13.00
2023-03-04T05:53:05.021Z,11.75
2023-03-04T05:54:07.507Z,12.50
2023-03-04T05:55:10.730Z,35.75
2023-03-04T05:56:18.942Z,24.00
2023-03-04T05:57:21.258Z,19.40
2023-03-04T05:58:23.594Z,17.98
2023-03-04T05:59:25.911Z,17.52
2023-03-04T06:00:28.441Z,15.82
2023-03-04T06:01:31.416Z,15.32
2023-03-04T06:02:33.771Z,14.35
2023-03-04T06:03:36.596Z,15.05
2023-03-04T06:04:39.054Z,14.45
2023-03-04T06:05:41.455Z,13.52
2023-03-04T06:06:46.449Z,14.57
2023-03-04T06:07:48.929Z,13.73
2023-03-04T06:08:51.425Z,14.50
2023-03-04T06:09:54.235Z,14.38
2023-03-04T06:10:57.578Z,12.85
2023-03-04T06:11:59.871Z,13.15
2023-03-04T06:13:02.214Z,12.82
2023-03-04T06:14:04.522Z,14.35
2023-03-04T06:15:09.984Z,13.48
2023-03-04T06:16:12.584Z,13.43
2023-03-04T06:17:14.981Z,13.90
2023-03-04T06:18:17.308Z,13.52
2023-03-04T06:19:19.761Z,35.63
2023-03-04T06:20:22.172Z,21.95
2023-03-04T06:21:24.509Z,19.52
2023-03-04T06:22:26.765Z,20.05
2023-03-04T06:23:30.828Z,18.35
2023-03-04T06:24:33.182Z,17.58
2023-03-04T06:25:35.532Z,17.00
2023-03-04T06:26:37.960Z,15.32
2023-03-04T06:27:40.492Z,14.70
2023-03-04T06:28:43.798Z,14.35
2023-03-04T06:29:46.245Z,14.65
2023-03-04T06:30:48.786Z,14.05
2023-03-04T06:31:51.255Z,15.02
2023-03-04T06:32:53.612Z,13.50
2023-03-04T06:33:55.948Z,15.65
2023-03-04T06:34:58.280Z,15.55
2023-03-04T06:36:00.651Z,15.02
2023-03-04T06:37:03.895Z,14.80
2023-03-04T06:38:06.126Z,13.50
2023-03-04T06:39:09.167Z,13.85
2023-03-04T06:40:12.403Z,13.35
2023-03-04T06:41:14.843Z,14.40
2023-03-04T06:42:17.501Z,14.23
2023-03-04T06:43:20.463Z,12.98
2023-03-04T06:44:22.839Z,13.70
2023-03-04T06:45:25.125Z,13.93
2023-03-04T06:46:30.315Z,14.15
2023-03-04T06:47:33.200Z,12.13
2023-03-04T06:48:36.112Z,13.23
2023-03-04T06:49:38.411Z,12.20
2023-03-04T06:50:41.367Z,13.27
2023-03-04T06:51:43.864Z,13.45
2023-03-04T06:52:46.828Z,12.90
2023-03-04T06:53:49.350Z,12.93
2023-03-04T06:54:51.962Z,13.25
2023-03-04T06:55:54.637Z,12.75
2023-03-04T06:56:57.425Z,12.48
2023-03-04T06:57:59.809Z,12.35
2023-03-04T06:59:02.314Z,12.63
2023-03-04T07:00:05.767Z,12.02
2023-03-04T07:01:16.245Z,12.45
2023-03-04T07:02:18.640Z,11.70
2023-03-04T07:03:21.236Z,11.70
2023-03-04T07:04:24.699Z,12.48
2023-03-04T07:05:27.075Z,11.93
2023-03-04T07:06:29.896Z,12.40
2023-03-04T07:07:32.273Z,13.02
2023-03-04T07:08:34.634Z,11.48
2023-03-04T07:09:37.028Z,12.10
2023-03-04T07:10:39.359Z,12.43
2023-03-04T07:11:41.720Z,12.18
2023-03-04T07:12:44.457Z,12.52
2023-03-04T07:13:47.102Z,11.80
2023-03-04T07:14:49.452Z,12.55
2023-03-04T07:15:52.687Z,12.07
2023-03-04T07:16:55.748Z,13.52
2023-03-04T07:17:58.049Z,12.63
2023-03-04T07:19:00.650Z,18.83
2023-03-04T07:20:03.801Z,13.73
2023-03-04T07:21:07.206Z,14.45
2023-03-04T07:22:09.574Z,13.60
2023-03-04T07:23:12.023Z,14.00
2023-03-04T07:24:14.494Z,14.60
2023-03-04T07:25:17.933Z,12.95
2023-03-04T07:26:20.340Z,13.23
2023-03-04T07:27:22.924Z,12.63
2023-03-04T07:28:25.267Z,12.77
2023-03-04T07:29:27.756Z,12.38
2023-03-04T07:30:30.284Z,14.05
2023-03-04T07:31:34.862Z,12.15
2023-03-04T07:32:37.633Z,11.63
2023-03-04T07:33:40.137Z,12.43
2023-03-04T07:34:42.473Z,11.68
2023-03-04T07:35:44.908Z,12.32
2023-03-04T07:36:47.361Z,12.95
2023-03-04T07:37:49.792Z,11.93
2023-03-04T07:38:54.699Z,11.40
2023-03-04T07:39:57.133Z,12.13
2023-03-04T07:40:59.762Z,12.07
2023-03-04T07:42:02.303Z,10.75
2023-03-04T07:43:05.814Z,11.60
2023-03-04T07:44:13.160Z,11.15
2023-03-04T07:45:15.855Z,11.60
2023-03-04T07:46:19.528Z,11.27
2023-03-04T07:47:22.021Z,12.35
2023-03-04T07:48:26.226Z,11.52
2023-03-04T07:49:30.016Z,11.45
2023-03-04T07:50:32.358Z,11.27
2023-03-04T07:51:35.844Z,11.20
2023-03-04T07:52:40.014Z,10.32
2023-03-04T07:53:47.449Z,11.38
2023-03-04T07:54:49.790Z,10.90
2023-03-04T07:55:52.134Z,11.55
2023-03-04T07:56:54.566Z,10.80
2023-03-04T07:57:57.500Z,10.90
2023-03-04T07:59:00.994Z,10.98
2023-03-04T08:00:04.078Z,10.88
2023-03-04T08:02:21.199Z,9.73
2023-03-04T08:03:23.982Z,10.70
2023-03-04T08:04:26.450Z,10.00
2023-03-04T08:05:28.928Z,9.85
2023-03-04T08:06:31.631Z,10.90
2023-03-04T08:07:34.134Z,10.07
2023-03-04T08:08:37.357Z,10.82
2023-03-04T08:09:39.873Z,10.68
2023-03-04T08:10:42.897Z,10.13
2023-03-04T08:11:45.518Z,10.65
2023-03-04T08:12:48.130Z,10.02
2023-03-04T08:13:50.894Z,9.65
2023-03-04T08:14:53.323Z,10.60
2023-03-04T08:15:56.509Z,9.82
2023-03-04T08:16:58.953Z,10.20
2023-03-04T08:18:02.142Z,9.05
2023-03-04T08:19:05.613Z,10.27
2023-03-04T08:20:08.588Z,10.10
2023-03-04T08:21:12.240Z,10.85
2023-03-04T08:22:14.665Z,9.43
2023-03-04T08:23:17.086Z,11.02
2023-03-04T08:24:19.613Z,10.02
2023-03-04T08:25:22.125Z,10.23
2023-03-04T08:26:31.119Z,10.13
2023-03-04T08:27:33.530Z,9.88
2023-03-04T08:28:36.083Z,10.63
2023-03-04T08:29:38.468Z,10.40
2023-03-04T08:30:42.142Z,9.25
2023-03-04T08:31:48.748Z,9.48
2023-03-04T08:32:51.467Z,10.10
2023-03-04T08:33:53.918Z,9.30
2023-03-04T08:34:56.915Z,9.18
2023-03-04T08:35:59.699Z,9.40
2023-03-04T08:37:02.098Z,9.95
2023-03-04T08:38:05.123Z,9.05
2023-03-04T08:39:07.548Z,8.88
2023-03-04T08:40:10.829Z,9.70
2023-03-04T08:41:13.924Z,9.80
2023-03-04T08:42:16.304Z,8.68
2023-03-04T08:43:18.680Z,9.45
2023-03-04T08:44:21.061Z,9.27
2023-03-04T08:45:23.424Z,9.23
2023-03-04T08:46:25.882Z,8.55
2023-03-04T08:47:28.245Z,9.82
2023-03-04T08:48:30.979Z,9.50
2023-03-04T08:49:33.362Z,9.05
2023-03-04T08:50:36.143Z,9.27
2023-03-04T08:51:38.615Z,8.77
2023-03-04T08:52:41.030Z,9.38
2023-03-04T08:53:43.619Z,8.23
2023-03-04T08:54:46.054Z,9.10
2023-03-04T08:55:48.667Z,8.50
2023-03-04T08:56:51.116Z,9.13
2023-03-04T08:57:53.523Z,10.00
2023-03-04T08:58:55.891Z,9.43
2023-03-04T08:59:58.339Z,8.95
2023-03-04T09:01:01.589Z,8.90
2023-03-04T09:02:03.967Z,8.85
2023-03-04T09:03:06.433Z,9.13
2023-03-04T09:04:08.860Z,8.60
2023-03-04T09:05:11.335Z,9.00
2023-03-04T09:06:17.331Z,9.57
2023-03-04T09:07:19.856Z,8.45
2023-03-04T09:08:22.231Z,9.15
2023-03-04T09:09:24.760Z,8.93
2023-03-04T09:10:27.206Z,9.15
2023-03-04T09:11:30.137Z,8.23
2023-03-04T09:12:32.812Z,8.95
2023-03-04T09:13:36.001Z,8.95
2023-03-04T09:14:38.407Z,8.90
2023-03-04T09:15:47.971Z,9.25
2023-03-04T09:16:50.389Z,9.10
2023-03-04T09:17:53.283Z,8.77
2023-03-04T09:18:55.667Z,8.50
2023-03-04T09:19:58.054Z,8.48
2023-03-04T09:21:00.353Z,8.20
2023-03-04T09:22:02.738Z,8.40
2023-03-04T09:23:05.160Z,8.50
2023-03-04T09:24:07.606Z,8.50
2023-03-04T09:25:13.537Z,8.63
2023-03-04T09:26:25.241Z,8.30
2023-03-04T09:27:27.740Z,9.00
2023-03-04T09:28:30.126Z,8.57
2023-03-04T09:29:32.585Z,8.88
2023-03-04T09:30:35.894Z,8.70
2023-03-04T09:31:38.349Z,9.23
2023-03-04T09:32:41.612Z,8.70
2023-03-04T09:33:44.233Z,8.73
2023-03-04T09:34:46.921Z,8.63
2023-03-04T09:35:49.936Z,7.40
2023-03-04T09:36:52.418Z,8.55
2023-03-04T09:37:54.837Z,8.68
2023-03-04T09:39:01.351Z,8.43
2023-03-04T09:40:05.482Z,9.07
2023-03-04T09:41:18.291Z,8.50
2023-03-04T09:42:28.302Z,8.57
2023-03-04T09:43:32.110Z,8.82
2023-03-04T09:44:40.896Z,8.85
2023-03-04T09:45:55.575Z,8.63
2023-03-04T09:47:01.903Z,7.53
2023-03-04T09:48:07.055Z,7.88
2023-03-04T09:49:13.774Z,8.07
2023-03-04T09:50:17.594Z,8.60
2023-03-04T09:51:40.732Z,8.10
2023-03-04T09:52:54.244Z,7.80
2023-03-04T09:54:06.204Z,7.63
2023-03-04T09:55:17.827Z,8.07
2023-03-04T09:56:20.159Z,8.75
2023-03-04T09:57:56.901Z,7.25
2023-03-04T09:59:25.140Z,8.00
2023-03-04T10:00:44.007Z,7.97
2023-03-04T10:01:51.243Z,8.32
2023-03-04T10:03:10.142Z,7.80
2023-03-04T10:04:41.099Z,8.30
2023-03-04T10:06:04.787Z,7.65
2023-03-04T10:07:19.060Z,6.82
2023-03-04T10:08:39.442Z,7.55
2023-03-04T10:09:53.973Z,8.30
2023-03-04T10:10:58.367Z,7.13
2023-03-04T10:12:13.225Z,7.38
2023-03-04T10:13:22.326Z,7.85
2023-03-04T10:14:32.437Z,7.60
2023-03-04T10:15:43.995Z,8.52
2023-03-04T10:16:52.138Z,61.67
2023-03-04T10:18:22.070Z,40.42
2023-03-04T10:19:47.505Z,35.13
2023-03-04T10:20:53.352Z,39.42
2023-03-04T10:21:55.901Z,27.50
2023-03-04T10:23:11.448Z,43.10
2023-03-04T10:24:19.310Z,30.55
2023-03-04T10:25:30.760Z,26.73
2023-03-04T10:26:33.504Z,24.90
2023-03-04T10:27:36.065Z,22.85
2023-03-04T10:28:39.141Z,21.30
2023-03-04T10:29:41.615Z,20.83
2023-03-04T10:30:46.686Z,22.02
2023-03-04T10:31:49.710Z,21.13
2023-03-04T10:32:52.148Z,19.90
2023-03-04T10:33:54.633Z,18.52
2023-03-04T10:34:57.349Z,19.83
2023-03-04T10:36:04.944Z,18.00
2023-03-04T10:37:09.882Z,18.52
2023-03-04T10:38:13.787Z,18.27
2023-03-04T10:39:26.001Z,18.48
2023-03-04T10:40:28.428Z,16.48
2023-03-04T10:41:31.603Z,16.33
2023-03-04T10:42:37.640Z,15.85
2023-03-04T10:43:40.584Z,17.20
2023-03-04T10:44:55.243Z,15.80
2023-03-04T10:45:58.615Z,14.82
2023-03-04T10:47:01.736Z,14.68
2023-03-04T10:48:04.832Z,14.05
2023-03-04T10:49:09.727Z,14.90
2023-03-04T10:50:25.504Z,13.88
2023-03-04T10:51:29.961Z,13.50
2023-03-04T10:52:38.394Z,14.00
2023-03-04T10:53:43.362Z,14.07
2023-03-04T10:54:52.385Z,12.50
2023-03-04T10:55:54.934Z,12.95
2023-03-04T10:57:02.699Z,13.43
2023-03-04T10:58:06.722Z,13.23
2023-03-04T10:59:27.856Z,11.15
2023-03-04T11:00:33.530Z,15.05
2023-03-04T11:01:35.892Z,15.57
2023-03-04T11:02:38.293Z,17.83
2023-03-04T11:03:48.553Z,18.73
2023-03-04T11:05:12.210Z,16.83
2023-03-04T11:06:20.989Z,20.75
2023-03-04T11:07:27.752Z,20.45
2023-03-04T11:08:30.180Z,20.40
2023-03-04T11:09:32.530Z,20.33
2023-03-04T11:10:37.610Z,19.77
2023-03-04T11:11:44.707Z,17.60
2023-03-04T11:12:53.118Z,15.98
2023-03-04T11:13:59.514Z,15.35
2023-03-04T11:15:02.833Z,14.65
2023-03-04T11:16:25.318Z,14.60
2023-03-04T11:17:41.883Z,14.07
2023-03-04T11:18:49.890Z,13.43
2023-03-04T11:20:03.918Z,12.95
2023-03-04T11:21:07.951Z,13.43
2023-03-04T11:22:15.795Z,13.57
2023-03-04T11:23:32.094Z,12.57
2023-03-04T11:24:37.121Z,12.95
2023-03-04T11:25:44.804Z,12.93
2023-03-04T11:26:50.489Z,12.88
2023-03-04T11:27:59.477Z,12.57
2023-03-04T11:29:14.054Z,12.30
2023-03-04T11:30:40.708Z,12.35
2023-03-04T11:32:00.468Z,12.50
2023-03-04T11:33:29.362Z,11.98
2023-03-04T11:34:41.026Z,12.23
2023-03-04T11:35:52.320Z,10.85
2023-03-04T11:38:05.934Z,10.95
2023-03-04T11:39:21.888Z,11.15
2023-03-04T11:40:41.444Z,11.07
2023-03-04T11:41:58.659Z,11.23
2023-03-04T11:43:14.759Z,14.02
2023-03-04T11:44:17.092Z,14.73
2023-03-04T11:45:54.975Z,14.15
2023-03-04T11:47:58.616Z,15.85
2023-03-04T11:49:25.868Z,15.20
2023-03-04T11:50:42.665Z,14.25
2023-03-04T11:52:02.867Z,13.00
2023-03-04T11:53:31.549Z,12.45
2023-03-04T11:55:03.691Z,12.60
2023-03-04T11:56:16.059Z,12.82
2023-03-04T11:57:56.383Z,11.98
2023-03-04T11:59:10.977Z,12.02
2023-03-04T12:00:35.727Z,11.70
2023-03-04T12:01:55.921Z,13.02
2023-03-04T12:03:35.709Z,10.43
2023-03-04T12:05:15.982Z,11.48
2023-03-04T12:06:35.294Z,10.55
2023-03-04T12:07:37.546Z,10.93
2023-03-04T12:08:54.437Z,11.57
2023-03-04T12:10:22.281Z,10.98
2023-03-04T12:11:45.462Z,10.23
2023-03-04T12:13:14.609Z,10.18
2023-03-04T12:14:25.355Z,9.70
2023-03-04T12:15:42.617Z,10.00
2023-03-04T12:17:01.017Z,10.05
2023-03-04T12:18:33.295Z,10.43
2023-03-04T12:19:47.068Z,9.90
2023-03-04T12:21:17.091Z,9.02
2023-03-04T12:22:30.024Z,10.13
2023-03-04T12:24:01.258Z,9.93
2023-03-04T12:25:09.563Z,9.15
2023-03-04T12:26:36.490Z,9.73
2023-03-04T12:27:44.912Z,9.70
2023-03-04T12:29:04.067Z,8.77
2023-03-04T12:30:14.068Z,9.65
2023-03-04T12:31:36.283Z,8.77
2023-03-04T12:32:57.240Z,9.80
2023-03-04T12:34:20.628Z,9.55
2023-03-04T12:35:41.794Z,9.13
2023-03-04T12:36:48.421Z,9.18
2023-03-04T12:38:00.679Z,8.55
2023-03-04T12:39:30.233Z,8.52
2023-03-04T12:40:42.440Z,8.32
2023-03-04T12:41:44.781Z,8.90
2023-03-04T12:43:06.160Z,9.85
2023-03-04T12:44:13.147Z,8.30
2023-03-04T12:45:25.541Z,9.05
2023-03-04T12:46:41.852Z,9.18
2023-03-04T12:47:50.252Z,8.25
2023-03-04T12:49:20.091Z,9.57
2023-03-04T12:50:28.226Z,8.45
2023-03-04T12:52:03.025Z,8.35
2023-03-04T12:53:29.876Z,9.30
2023-03-04T12:54:39.797Z,9.15
2023-03-04T12:55:45.539Z,8.88
2023-03-04T12:56:57.831Z,9.75
2023-03-04T12:58:00.331Z,8.90
2023-03-04T12:59:03.231Z,8.95
2023-03-04T13:00:17.933Z,8.93
2023-03-04T13:01:32.289Z,8.38
2023-03-04T13:02:55.531Z,8.52
2023-03-04T13:04:14.414Z,8.38
2023-03-04T13:05:35.929Z,8.20
2023-03-04T13:07:13.045Z,8.15
2023-03-04T13:08:37.195Z,7.97
2023-03-04T13:09:58.451Z,8.48
2023-03-04T13:11:03.736Z,8.05
2023-03-04T13:12:20.313Z,8.05
2023-03-04T13:13:34.364Z,7.60
2023-03-04T13:14:36.842Z,7.82
2023-03-04T13:15:39.666Z,7.90
2023-03-04T13:16:43.864Z,7.32
2023-03-04T13:17:51.523Z,7.20
2023-03-04T13:18:54.633Z,7.90
2023-03-04T13:20:12.070Z,7.43
2023-03-04T13:21:23.187Z,7.60
2023-03-04T13:22:30.008Z,7.47
2023-03-04T13:23:32.925Z,7.78
2023-03-04T13:24:52.367Z,7.18
2023-03-04T13:25:57.865Z,7.97
2023-03-04T13:27:00.421Z,8.27
2023-03-04T13:28:02.733Z,7.57
2023-03-04T13:29:31.852Z,7.93
2023-03-04T13:30:34.480Z,7.70
2023-03-04T13:31:58.001Z,7.63
2023-03-04T13:33:08.937Z,7.15
2023-03-04T13:34:43.268Z,7.45
2023-03-04T13:35:54.367Z,7.82
2023-03-04T13:36:57.434Z,7.65
2023-03-04T13:38:00.354Z,7.68
2023-03-04T13:39:22.551Z,7.35
2023-03-04T13:40:34.806Z,7.88
2023-03-04T13:41:51.900Z,7.70
2023-03-04T13:42:54.274Z,7.38
2023-03-04T13:43:58.320Z,7.43
2023-03-04T13:45:02.605Z,8.35
2023-03-04T13:46:20.649Z,7.88
2023-03-04T13:47:30.272Z,7.38
2023-03-04T13:48:36.379Z,6.82
2023-03-04T13:49:38.724Z,7.63
2023-03-04T13:50:48.105Z,6.97
2023-03-04T13:51:50.953Z,8.02
2023-03-04T13:52:53.422Z,7.32
2023-03-04T13:54:07.945Z,7.47
2023-03-04T13:55:40.218Z,7.13
2023-03-04T13:57:21.046Z,6.97
2023-03-04T13:58:27.227Z,7.18
2023-03-04T13:59:42.926Z,6.90
2023-03-04T14:00:49.542Z,7.07
2023-03-04T14:01:56.831Z,7.28
2023-03-04T14:03:14.098Z,7.18
2023-03-04T14:04:18.742Z,6.65
2023-03-04T14:05:21.254Z,6.60
2023-03-04T14:06:26.708Z,7.47
2023-03-04T14:07:33.672Z,7.72
2023-03-04T14:08:35.990Z,6.85
2023-03-04T14:09:38.514Z,7.13
2023-03-04T14:10:41.246Z,6.72
2023-03-04T14:11:44.370Z,6.90
2023-03-04T14:12:51.427Z,7.07
2023-03-04T14:13:56.978Z,7.15
2023-03-04T14:15:02.926Z,6.95
2023-03-04T14:16:06.233Z,6.75
2023-03-04T14:17:19.348Z,6.63
2023-03-04T14:18:21.951Z,7.43
2023-03-04T14:19:33.390Z,6.78
2023-03-04T14:20:48.293Z,7.25
2023-03-04T14:21:50.852Z,7.25
2023-03-04T14:22:53.714Z,7.07
2023-03-04T14:24:13.946Z,7.68
2023-03-04T14:25:19.039Z,8.98
2023-03-04T14:26:22.641Z,8.55
2023-03-04T14:27:24.976Z,8.23